sensor_id;sensor_type;location;lat;lon;timestamp;noise_LAeq;noise_LA_min;noise_LA_max;noise_LA01;noise_LA95
65079;Laerm;52655;52.218;5.964;2023-07-29T00:00:10;39.3;31.0;52.6;;
65079;Laerm;52655;52.218;5.964;2023-07-29T00:03:11;37.9;30.7;45.2;;
65079;Laerm;52655;52.218;5.964;2023-07-29T00:06:12;38.2;30.6;52.6;;
65079;Laerm;52655;52.218;5.964;2023-07-29T00:09:13;39.5;32.0;52.6;;
65079;Laerm;52655;52.218;5.964;2023-07-29T00:12:14;33.7;30.6;47.6;;
65079;Laerm;52655;52.218;5.964;2023-07-29T00:15:15;37.7;30.4;51.4;;
65079;Laerm;52655;52.218;5.964;2023-07-29T00:18:16;37.5;30.7;53.6;;
65079;Laerm;52655;52.218;5.964;2023-07-29T00:21:17;39.3;31.1;66.0;;
65079;Laerm;52655;52.218;5.964;2023-07-29T00:24:18;39.0;31.3;54.6;;
65079;Laerm;52655;52.218;5.964;2023-07-29T00:27:19;35.3;31.0;51.6;;
65079;Laerm;52655;52.218;5.964;2023-07-29T00:30:21;36.7;30.4;54.1;;
65079;Laerm;52655;52.218;5.964;2023-07-29T00:33:22;35.1;30.6;49.5;;
65079;Laerm;52655;52.218;5.964;2023-07-29T00:36:23;39.9;30.6;55.0;;
65079;Laerm;52655;52.218;5.964;2023-07-29T00:39:24;43.5;29.9;62.0;;
65079;Laerm;52655;52.218;5.964;2023-07-29T00:42:25;35.7;29.9;52.0;;
65079;Laerm;52655;52.218;5.964;2023-07-29T00:45:26;33.5;29.8;49.6;;
65079;Laerm;52655;52.218;5.964;2023-07-29T00:48:27;31.1;29.2;39.3;;
65079;Laerm;52655;52.218;5.964;2023-07-29T00:51:28;35.1;29.6;51.2;;
65079;Laerm;52655;52.218;5.964;2023-07-29T00:54:29;31.4;29.6;37.8;;
65079;Laerm;52655;52.218;5.964;2023-07-29T00:57:30;31.3;29.6;40.0;;
65079;Laerm;52655;52.218;5.964;2023-07-29T01:06:45;32.6;30.1;37.6;;
65079;Laerm;52655;52.218;5.964;2023-07-29T01:09:50;34.5;29.0;51.9;;
65079;Laerm;52655;52.218;5.964;2023-07-29T01:12:49;32.5;29.8;43.5;;
65079;Laerm;52655;52.218;5.964;2023-07-29T01:15:55;32.2;29.0;47.6;;
65079;Laerm;52655;52.218;5.964;2023-07-29T01:18:38;33.9;29.9;45.6;;
65079;Laerm;52655;52.218;5.964;2023-07-29T01:21:38;32.1;29.5;40.4;;
65079;Laerm;52655;52.218;5.964;2023-07-29T01:24:39;36.5;29.3;53.1;;
65079;Laerm;52655;52.218;5.964;2023-07-29T01:30:43;31.2;29.4;36.9;;
65079;Laerm;52655;52.218;5.964;2023-07-29T01:37:34;35.6;29.5;53.5;;
65079;Laerm;52655;52.218;5.964;2023-07-29T01:44:26;30.5;28.7;35.9;;
65079;Laerm;52655;52.218;5.964;2023-07-29T01:50:28;30.8;28.9;35.9;;
65079;Laerm;52655;52.218;5.964;2023-07-29T01:56:30;32.4;29.6;37.8;;
65079;Laerm;52655;52.218;5.964;2023-07-29T02:02:32;34.3;30.0;40.8;;
65079;Laerm;52655;52.218;5.964;2023-07-29T02:08:34;33.0;28.6;49.0;;
65079;Laerm;52655;52.218;5.964;2023-07-29T02:14:36;40.3;29.2;62.8;;
65079;Laerm;52655;52.218;5.964;2023-07-29T02:20:38;35.5;28.5;57.9;;
65079;Laerm;52655;52.218;5.964;2023-07-29T02:26:40;30.4;28.5;35.1;;
65079;Laerm;52655;52.218;5.964;2023-07-29T02:32:42;31.4;28.7;38.0;;
65079;Laerm;52655;52.218;5.964;2023-07-29T02:37:39;29.7;28.5;31.6;;
65079;Laerm;52655;52.218;5.964;2023-07-29T02:40:40;30.7;28.6;42.7;;
65079;Laerm;52655;52.218;5.964;2023-07-29T02:43:42;29.8;28.8;30.9;;
65079;Laerm;52655;52.218;5.964;2023-07-29T02:46:42;33.5;28.8;49.6;;
65079;Laerm;52655;52.218;5.964;2023-07-29T02:49:43;29.4;28.0;33.9;;
65079;Laerm;52655;52.218;5.964;2023-07-29T02:52:44;34.2;28.6;50.3;;
65079;Laerm;52655;52.218;5.964;2023-07-29T02:55:45;30.0;28.4;39.6;;
65079;Laerm;52655;52.218;5.964;2023-07-29T02:58:46;30.6;28.8;38.3;;
65079;Laerm;52655;52.218;5.964;2023-07-29T03:01:47;31.0;28.2;41.6;;
65079;Laerm;52655;52.218;5.964;2023-07-29T03:04:48;29.5;28.0;34.0;;
65079;Laerm;52655;52.218;5.964;2023-07-29T03:07:49;30.0;28.6;39.7;;
65079;Laerm;52655;52.218;5.964;2023-07-29T03:10:50;30.2;28.8;35.5;;
65079;Laerm;52655;52.218;5.964;2023-07-29T03:13:51;38.2;28.7;57.5;;
65079;Laerm;52655;52.218;5.964;2023-07-29T03:16:52;30.3;29.2;32.7;;
65079;Laerm;52655;52.218;5.964;2023-07-29T03:22:55;33.7;29.4;44.9;;
65079;Laerm;52655;52.218;5.964;2023-07-29T03:25:56;30.3;28.8;35.8;;
65079;Laerm;52655;52.218;5.964;2023-07-29T03:28:57;33.7;28.8;46.9;;
65079;Laerm;52655;52.218;5.964;2023-07-29T03:31:58;34.4;29.2;51.8;;
65079;Laerm;52655;52.218;5.964;2023-07-29T03:34:59;32.2;29.2;47.2;;
65079;Laerm;52655;52.218;5.964;2023-07-29T03:41:01;42.0;29.7;57.8;;
65079;Laerm;52655;52.218;5.964;2023-07-29T03:44:02;37.5;28.8;52.7;;
65079;Laerm;52655;52.218;5.964;2023-07-29T03:47:03;34.2;30.0;48.1;;
65079;Laerm;52655;52.218;5.964;2023-07-29T03:50:04;36.9;29.4;53.2;;
65079;Laerm;52655;52.218;5.964;2023-07-29T03:53:05;36.1;29.2;52.0;;
65079;Laerm;52655;52.218;5.964;2023-07-29T03:56:06;34.5;29.6;48.3;;
65079;Laerm;52655;52.218;5.964;2023-07-29T03:59:07;35.6;29.5;54.4;;
65079;Laerm;52655;52.218;5.964;2023-07-29T04:02:08;33.7;29.6;44.6;;
65079;Laerm;52655;52.218;5.964;2023-07-29T04:05:09;34.8;29.4;47.6;;
65079;Laerm;52655;52.218;5.964;2023-07-29T04:08:10;32.6;28.9;46.9;;
65079;Laerm;52655;52.218;5.964;2023-07-29T04:11:11;34.3;29.4;46.5;;
65079;Laerm;52655;52.218;5.964;2023-07-29T04:14:12;34.5;29.0;51.7;;
65079;Laerm;52655;52.218;5.964;2023-07-29T04:17:13;32.6;29.3;45.5;;
65079;Laerm;52655;52.218;5.964;2023-07-29T04:20:14;32.1;29.6;49.0;;
65079;Laerm;52655;52.218;5.964;2023-07-29T04:23:15;38.9;29.3;56.2;;
65079;Laerm;52655;52.218;5.964;2023-07-29T04:26:16;36.6;29.8;54.8;;
65079;Laerm;52655;52.218;5.964;2023-07-29T04:29:17;35.6;30.0;48.1;;
65079;Laerm;52655;52.218;5.964;2023-07-29T04:32:19;33.0;29.9;39.9;;
65079;Laerm;52655;52.218;5.964;2023-07-29T04:35:20;36.4;29.7;51.1;;
65079;Laerm;52655;52.218;5.964;2023-07-29T04:38:21;33.5;29.9;47.9;;
65079;Laerm;52655;52.218;5.964;2023-07-29T04:41:22;35.3;29.8;51.4;;
65079;Laerm;52655;52.218;5.964;2023-07-29T04:44:23;33.5;29.7;41.1;;
65079;Laerm;52655;52.218;5.964;2023-07-29T04:47:24;40.4;29.9;56.0;;
65079;Laerm;52655;52.218;5.964;2023-07-29T04:53:26;36.9;29.8;53.5;;
65079;Laerm;52655;52.218;5.964;2023-07-29T04:56:27;36.7;30.2;53.4;;
65079;Laerm;52655;52.218;5.964;2023-07-29T04:59:28;33.9;30.6;40.6;;
65079;Laerm;52655;52.218;5.964;2023-07-29T05:02:29;34.1;30.4;50.0;;
65079;Laerm;52655;52.218;5.964;2023-07-29T05:05:30;37.6;31.1;55.0;;
65079;Laerm;52655;52.218;5.964;2023-07-29T05:08:31;40.2;30.8;56.7;;
65079;Laerm;52655;52.218;5.964;2023-07-29T05:11:32;39.6;30.8;54.8;;
65079;Laerm;52655;52.218;5.964;2023-07-29T05:14:33;35.6;30.5;52.5;;
65079;Laerm;52655;52.218;5.964;2023-07-29T05:17:34;39.5;33.0;53.9;;
65079;Laerm;52655;52.218;5.964;2023-07-29T05:20:35;39.5;30.2;54.6;;
65079;Laerm;52655;52.218;5.964;2023-07-29T05:23:36;40.0;30.5;53.9;;
65079;Laerm;52655;52.218;5.964;2023-07-29T05:26:37;39.7;32.3;54.0;;
65079;Laerm;52655;52.218;5.964;2023-07-29T05:29:38;41.9;31.3;58.8;;
65079;Laerm;52655;52.218;5.964;2023-07-29T05:32:40;39.1;31.5;52.5;;
65079;Laerm;52655;52.218;5.964;2023-07-29T05:35:41;39.1;32.1;52.5;;
65079;Laerm;52655;52.218;5.964;2023-07-29T05:38:42;33.9;30.5;48.0;;
65079;Laerm;52655;52.218;5.964;2023-07-29T05:41:43;39.5;31.2;55.6;;
65079;Laerm;52655;52.218;5.964;2023-07-29T05:47:45;38.0;31.4;52.4;;
65079;Laerm;52655;52.218;5.964;2023-07-29T05:50:46;40.7;33.0;52.1;;
65079;Laerm;52655;52.218;5.964;2023-07-29T05:53:47;39.6;32.4;53.4;;
65079;Laerm;52655;52.218;5.964;2023-07-29T05:56:48;36.6;31.3;53.2;;
65079;Laerm;52655;52.218;5.964;2023-07-29T05:59:49;40.3;31.9;51.1;;
65079;Laerm;52655;52.218;5.964;2023-07-29T06:02:50;38.0;31.8;52.4;;
65079;Laerm;52655;52.218;5.964;2023-07-29T06:05:51;40.5;31.9;53.9;;
65079;Laerm;52655;52.218;5.964;2023-07-29T06:08:52;43.7;33.4;61.8;;
65079;Laerm;52655;52.218;5.964;2023-07-29T06:11:53;39.9;31.9;54.6;;
65079;Laerm;52655;52.218;5.964;2023-07-29T06:14:54;40.0;31.8;53.9;;
65079;Laerm;52655;52.218;5.964;2023-07-29T06:17:55;42.6;32.5;59.3;;
65079;Laerm;52655;52.218;5.964;2023-07-29T06:20:56;41.9;33.2;53.7;;
65079;Laerm;52655;52.218;5.964;2023-07-29T06:23:57;39.5;31.4;54.9;;
65079;Laerm;52655;52.218;5.964;2023-07-29T06:26:58;40.0;32.7;55.6;;
65079;Laerm;52655;52.218;5.964;2023-07-29T06:29:59;37.0;31.9;49.7;;
65079;Laerm;52655;52.218;5.964;2023-07-29T06:33:00;38.8;32.4;53.9;;
65079;Laerm;52655;52.218;5.964;2023-07-29T06:36:02;42.1;32.5;55.3;;
65079;Laerm;52655;52.218;5.964;2023-07-29T06:39:03;42.7;32.4;57.7;;
65079;Laerm;52655;52.218;5.964;2023-07-29T06:45:05;41.9;34.0;55.3;;
65079;Laerm;52655;52.218;5.964;2023-07-29T06:48:06;41.4;34.8;54.8;;
65079;Laerm;52655;52.218;5.964;2023-07-29T06:51:07;51.2;32.9;59.3;;
65079;Laerm;52655;52.218;5.964;2023-07-29T06:54:08;41.5;33.4;51.1;;
65079;Laerm;52655;52.218;5.964;2023-07-29T06:57:09;41.9;34.9;52.6;;
65079;Laerm;52655;52.218;5.964;2023-07-29T07:00:10;42.2;32.5;53.6;;
65079;Laerm;52655;52.218;5.964;2023-07-29T07:03:11;43.1;32.9;54.3;;
65079;Laerm;52655;52.218;5.964;2023-07-29T07:06:12;40.0;32.2;56.6;;
65079;Laerm;52655;52.218;5.964;2023-07-29T07:09:13;44.4;32.7;57.6;;
65079;Laerm;52655;52.218;5.964;2023-07-29T07:12:14;49.4;34.9;61.5;;
65079;Laerm;52655;52.218;5.964;2023-07-29T07:15:15;39.7;33.6;56.5;;
65079;Laerm;52655;52.218;5.964;2023-07-29T07:18:16;43.5;35.2;59.0;;
65079;Laerm;52655;52.218;5.964;2023-07-29T07:21:17;43.7;36.3;52.5;;
65079;Laerm;52655;52.218;5.964;2023-07-29T07:24:18;45.5;39.5;56.6;;
65079;Laerm;52655;52.218;5.964;2023-07-29T07:27:19;43.7;35.6;52.7;;
65079;Laerm;52655;52.218;5.964;2023-07-29T07:30:20;41.3;34.6;53.1;;
65079;Laerm;52655;52.218;5.964;2023-07-29T07:33:21;43.0;35.8;50.6;;
65079;Laerm;52655;52.218;5.964;2023-07-29T07:36:22;47.4;37.8;59.6;;
65079;Laerm;52655;52.218;5.964;2023-07-29T07:39:23;42.8;34.8;54.5;;
65079;Laerm;52655;52.218;5.964;2023-07-29T07:42:24;43.9;37.1;54.7;;
65079;Laerm;52655;52.218;5.964;2023-07-29T07:45:25;43.5;35.8;54.1;;
65079;Laerm;52655;52.218;5.964;2023-07-29T07:48:27;43.4;35.5;53.6;;
65079;Laerm;52655;52.218;5.964;2023-07-29T07:51:28;39.1;33.6;49.9;;
65079;Laerm;52655;52.218;5.964;2023-07-29T07:54:29;46.9;36.1;60.1;;
65079;Laerm;52655;52.218;5.964;2023-07-29T07:57:30;43.3;37.1;53.8;;
65079;Laerm;52655;52.218;5.964;2023-07-29T08:00:31;42.6;35.4;53.5;;
65079;Laerm;52655;52.218;5.964;2023-07-29T08:03:32;43.4;36.0;52.7;;
65079;Laerm;52655;52.218;5.964;2023-07-29T08:06:33;44.8;37.8;55.1;;
65079;Laerm;52655;52.218;5.964;2023-07-29T08:09:34;42.8;34.3;57.9;;
65079;Laerm;52655;52.218;5.964;2023-07-29T08:12:35;42.6;35.8;52.9;;
65079;Laerm;52655;52.218;5.964;2023-07-29T08:15:36;43.5;34.2;55.9;;
65079;Laerm;52655;52.218;5.964;2023-07-29T08:18:37;45.4;36.2;56.9;;
65079;Laerm;52655;52.218;5.964;2023-07-29T08:21:38;41.7;36.0;58.2;;
65079;Laerm;52655;52.218;5.964;2023-07-29T08:24:39;44.7;33.8;55.2;;
65079;Laerm;52655;52.218;5.964;2023-07-29T08:27:40;42.1;34.2;58.4;;
65079;Laerm;52655;52.218;5.964;2023-07-29T08:30:41;41.6;33.3;51.8;;
65079;Laerm;52655;52.218;5.964;2023-07-29T08:33:42;47.2;38.5;58.6;;
65079;Laerm;52655;52.218;5.964;2023-07-29T08:36:43;45.3;35.8;58.1;;
65079;Laerm;52655;52.218;5.964;2023-07-29T08:39:44;49.8;38.4;62.9;;
65079;Laerm;52655;52.218;5.964;2023-07-29T08:42:45;45.6;37.5;53.9;;
65079;Laerm;52655;52.218;5.964;2023-07-29T08:45:46;43.7;37.1;54.5;;
65079;Laerm;52655;52.218;5.964;2023-07-29T08:48:47;43.5;34.3;53.6;;
65079;Laerm;52655;52.218;5.964;2023-07-29T08:51:49;43.8;34.4;55.0;;
65079;Laerm;52655;52.218;5.964;2023-07-29T08:56:45;44.7;35.9;58.0;;
65079;Laerm;52655;52.218;5.964;2023-07-29T08:59:46;42.5;34.9;56.3;;
65079;Laerm;52655;52.218;5.964;2023-07-29T09:02:47;46.5;38.7;59.3;;
65079;Laerm;52655;52.218;5.964;2023-07-29T09:05:48;44.9;37.0;56.2;;
65079;Laerm;52655;52.218;5.964;2023-07-29T09:08:52;41.9;34.1;52.5;;
65079;Laerm;52655;52.218;5.964;2023-07-29T09:11:50;42.5;35.3;55.3;;
65079;Laerm;52655;52.218;5.964;2023-07-29T09:14:51;47.4;35.9;59.7;;
65079;Laerm;52655;52.218;5.964;2023-07-29T09:17:52;47.4;36.5;62.0;;
65079;Laerm;52655;52.218;5.964;2023-07-29T09:20:53;45.4;38.6;56.0;;
65079;Laerm;52655;52.218;5.964;2023-07-29T09:23:55;41.8;33.1;53.8;;
65079;Laerm;52655;52.218;5.964;2023-07-29T09:26:55;43.3;36.8;53.4;;
65079;Laerm;52655;52.218;5.964;2023-07-29T09:29:57;42.5;34.5;53.5;;
65079;Laerm;52655;52.218;5.964;2023-07-29T09:32:58;46.6;36.4;60.5;;
65079;Laerm;52655;52.218;5.964;2023-07-29T09:35:59;44.2;35.4;53.9;;
65079;Laerm;52655;52.218;5.964;2023-07-29T09:39:00;43.9;35.6;53.0;;
65079;Laerm;52655;52.218;5.964;2023-07-29T09:42:01;40.7;33.6;52.5;;
65079;Laerm;52655;52.218;5.964;2023-07-29T09:45:02;46.8;37.4;59.7;;
65079;Laerm;52655;52.218;5.964;2023-07-29T09:48:03;44.5;36.8;55.1;;
65079;Laerm;52655;52.218;5.964;2023-07-29T09:51:09;41.4;34.2;53.9;;
65079;Laerm;52655;52.218;5.964;2023-07-29T09:54:05;43.5;35.4;52.6;;
65079;Laerm;52655;52.218;5.964;2023-07-29T09:57:06;45.8;35.5;55.3;;
65079;Laerm;52655;52.218;5.964;2023-07-29T10:00:07;46.2;37.6;56.8;;
65079;Laerm;52655;52.218;5.964;2023-07-29T10:03:08;46.6;38.4;53.6;;
65079;Laerm;52655;52.218;5.964;2023-07-29T10:06:09;44.2;37.5;54.8;;
65079;Laerm;52655;52.218;5.964;2023-07-29T10:09:11;44.9;39.2;57.1;;
65079;Laerm;52655;52.218;5.964;2023-07-29T10:12:11;47.7;39.3;63.5;;
65079;Laerm;52655;52.218;5.964;2023-07-29T10:15:12;42.7;34.9;52.7;;
65079;Laerm;52655;52.218;5.964;2023-07-29T10:18:15;45.2;38.1;58.9;;
65079;Laerm;52655;52.218;5.964;2023-07-29T10:21:14;43.7;35.3;54.6;;
65079;Laerm;52655;52.218;5.964;2023-07-29T10:24:24;42.8;34.9;55.6;;
65079;Laerm;52655;52.218;5.964;2023-07-29T10:27:17;45.2;39.4;52.0;;
65079;Laerm;52655;52.218;5.964;2023-07-29T10:30:17;52.1;36.1;65.0;;
65079;Laerm;52655;52.218;5.964;2023-07-29T10:33:18;45.3;38.4;58.1;;
65079;Laerm;52655;52.218;5.964;2023-07-29T10:36:20;44.7;37.5;56.4;;
65079;Laerm;52655;52.218;5.964;2023-07-29T10:39:21;50.3;40.1;63.2;;
65079;Laerm;52655;52.218;5.964;2023-07-29T10:42:22;43.0;37.5;53.8;;
65079;Laerm;52655;52.218;5.964;2023-07-29T10:45:23;43.5;36.1;54.8;;
65079;Laerm;52655;52.218;5.964;2023-07-29T10:48:40;44.7;37.2;54.2;;
65079;Laerm;52655;52.218;5.964;2023-07-29T10:51:25;43.5;36.1;61.3;;
65079;Laerm;52655;52.218;5.964;2023-07-29T10:54:26;44.9;34.9;57.8;;
65079;Laerm;52655;52.218;5.964;2023-07-29T10:57:30;45.5;37.1;60.8;;
65079;Laerm;52655;52.218;5.964;2023-07-29T11:03:29;43.6;33.3;53.9;;
65079;Laerm;52655;52.218;5.964;2023-07-29T11:06:30;49.0;36.6;70.7;;
65079;Laerm;52655;52.218;5.964;2023-07-29T11:12:37;44.2;35.3;55.3;;
65079;Laerm;52655;52.218;5.964;2023-07-29T11:15:33;44.0;35.6;56.2;;
65079;Laerm;52655;52.218;5.964;2023-07-29T11:18:35;53.9;35.8;68.0;;
65079;Laerm;52655;52.218;5.964;2023-07-29T11:21:35;50.0;37.3;64.2;;
65079;Laerm;52655;52.218;5.964;2023-07-29T11:24:36;41.1;34.3;51.6;;
65079;Laerm;52655;52.218;5.964;2023-07-29T11:27:37;44.9;36.1;53.4;;
65079;Laerm;52655;52.218;5.964;2023-07-29T11:30:39;44.7;35.7;54.9;;
65079;Laerm;52655;52.218;5.964;2023-07-29T11:33:39;45.2;35.4;54.3;;
65079;Laerm;52655;52.218;5.964;2023-07-29T11:36:43;48.9;36.0;62.4;;
65079;Laerm;52655;52.218;5.964;2023-07-29T11:39:42;51.0;37.3;67.0;;
65079;Laerm;52655;52.218;5.964;2023-07-29T11:42:43;44.7;35.6;56.7;;
65079;Laerm;52655;52.218;5.964;2023-07-29T11:45:44;44.0;36.8;53.3;;
65079;Laerm;52655;52.218;5.964;2023-07-29T11:48:45;47.5;36.8;60.3;;
65079;Laerm;52655;52.218;5.964;2023-07-29T11:51:46;44.0;35.0;54.2;;
65079;Laerm;52655;52.218;5.964;2023-07-29T11:54:47;44.0;34.7;55.3;;
65079;Laerm;52655;52.218;5.964;2023-07-29T11:57:51;44.1;34.3;54.1;;
65079;Laerm;52655;52.218;5.964;2023-07-29T12:03:50;51.1;43.5;59.5;;
65079;Laerm;52655;52.218;5.964;2023-07-29T12:08:46;43.7;38.3;53.9;;
65079;Laerm;52655;52.218;5.964;2023-07-29T12:14:48;45.3;38.1;54.7;;
65079;Laerm;52655;52.218;5.964;2023-07-29T12:20:51;47.4;41.3;60.5;;
65079;Laerm;52655;52.218;5.964;2023-07-29T12:26:53;47.6;42.6;59.6;;
65079;Laerm;52655;52.218;5.964;2023-07-29T12:32:55;47.2;38.2;55.8;;
65079;Laerm;52655;52.218;5.964;2023-07-29T12:38:58;42.8;34.3;51.2;;
65079;Laerm;52655;52.218;5.964;2023-07-29T12:44:59;42.7;34.1;52.1;;
65079;Laerm;52655;52.218;5.964;2023-07-29T12:51:01;44.9;35.9;56.6;;
65079;Laerm;52655;52.218;5.964;2023-07-29T12:57:03;43.3;34.4;52.6;;
65079;Laerm;52655;52.218;5.964;2023-07-29T13:02:00;46.2;35.1;56.8;;
65079;Laerm;52655;52.218;5.964;2023-07-29T13:05:01;43.2;35.3;56.8;;
65079;Laerm;52655;52.218;5.964;2023-07-29T13:08:02;44.1;35.7;57.6;;
65079;Laerm;52655;52.218;5.964;2023-07-29T13:14:04;42.8;35.4;52.4;;
65079;Laerm;52655;52.218;5.964;2023-07-29T13:19:00;44.5;34.3;57.6;;
65079;Laerm;52655;52.218;5.964;2023-07-29T13:28:04;43.8;38.0;51.9;;
65079;Laerm;52655;52.218;5.964;2023-07-29T13:37:07;44.1;34.7;58.6;;
65079;Laerm;52655;52.218;5.964;2023-07-29T13:46:10;43.3;37.1;54.1;;
65079;Laerm;52655;52.218;5.964;2023-07-29T13:55:13;48.3;38.4;58.2;;
65079;Laerm;52655;52.218;5.964;2023-07-29T14:04:16;42.2;37.1;53.0;;
65079;Laerm;52655;52.218;5.964;2023-07-29T14:13:19;43.8;37.1;56.8;;
65079;Laerm;52655;52.218;5.964;2023-07-29T14:22:22;43.3;34.5;53.0;;
65079;Laerm;52655;52.218;5.964;2023-07-29T14:31:26;45.3;36.2;62.1;;
65079;Laerm;52655;52.218;5.964;2023-07-29T14:36:22;45.0;37.1;57.5;;
65079;Laerm;52655;52.218;5.964;2023-07-29T14:42:25;46.1;37.9;57.3;;
65079;Laerm;52655;52.218;5.964;2023-07-29T14:48:26;46.0;38.4;54.9;;
65079;Laerm;52655;52.218;5.964;2023-07-29T14:54:28;42.6;34.4;53.9;;
65079;Laerm;52655;52.218;5.964;2023-07-29T15:00:30;46.5;37.8;55.2;;
65079;Laerm;52655;52.218;5.964;2023-07-29T15:06:33;44.3;36.5;54.7;;
65079;Laerm;52655;52.218;5.964;2023-07-29T15:12:35;45.4;37.7;56.1;;
65079;Laerm;52655;52.218;5.964;2023-07-29T15:18:37;48.2;36.0;67.6;;
65079;Laerm;52655;52.218;5.964;2023-07-29T15:24:39;45.2;37.2;55.4;;
65079;Laerm;52655;52.218;5.964;2023-07-29T15:31:32;42.3;35.0;51.3;;
65079;Laerm;52655;52.218;5.964;2023-07-29T15:38:24;44.4;36.6;52.3;;
65079;Laerm;52655;52.218;5.964;2023-07-29T15:41:25;42.6;34.3;52.7;;
65079;Laerm;52655;52.218;5.964;2023-07-29T15:44:26;45.7;32.6;58.0;;
65079;Laerm;52655;52.218;5.964;2023-07-29T15:47:27;44.1;33.6;58.4;;
65079;Laerm;52655;52.218;5.964;2023-07-29T15:53:29;41.4;34.0;51.4;;
65079;Laerm;52655;52.218;5.964;2023-07-29T15:56:30;42.5;33.9;55.0;;
65079;Laerm;52655;52.218;5.964;2023-07-29T15:59:31;42.8;34.8;53.4;;
65079;Laerm;52655;52.218;5.964;2023-07-29T16:02:33;44.9;34.9;54.7;;
65079;Laerm;52655;52.218;5.964;2023-07-29T16:05:34;47.2;40.7;55.9;;
65079;Laerm;52655;52.218;5.964;2023-07-29T16:08:35;45.7;37.1;56.5;;
65079;Laerm;52655;52.218;5.964;2023-07-29T16:11:36;45.1;35.7;57.4;;
65079;Laerm;52655;52.218;5.964;2023-07-29T16:14:37;43.7;35.6;54.3;;
65079;Laerm;52655;52.218;5.964;2023-07-29T16:17:38;42.7;34.9;54.4;;
65079;Laerm;52655;52.218;5.964;2023-07-29T16:20:39;41.9;35.3;51.2;;
65079;Laerm;52655;52.218;5.964;2023-07-29T16:23:40;42.2;34.0;54.8;;
65079;Laerm;52655;52.218;5.964;2023-07-29T16:26:41;45.2;38.0;58.8;;
65079;Laerm;52655;52.218;5.964;2023-07-29T16:29:42;50.4;42.6;57.3;;
65079;Laerm;52655;52.218;5.964;2023-07-29T16:32:43;44.9;35.2;57.4;;
65079;Laerm;52655;52.218;5.964;2023-07-29T16:35:44;43.7;34.1;51.2;;
65079;Laerm;52655;52.218;5.964;2023-07-29T16:41:46;42.8;34.4;52.5;;
65079;Laerm;52655;52.218;5.964;2023-07-29T16:44:47;45.2;37.3;64.9;;
65079;Laerm;52655;52.218;5.964;2023-07-29T16:47:48;41.2;34.1;52.7;;
65079;Laerm;52655;52.218;5.964;2023-07-29T16:50:49;42.1;34.2;52.1;;
65079;Laerm;52655;52.218;5.964;2023-07-29T16:53:50;43.5;35.7;54.9;;
65079;Laerm;52655;52.218;5.964;2023-07-29T16:56:51;43.0;35.2;60.8;;
65079;Laerm;52655;52.218;5.964;2023-07-29T16:59:52;43.8;35.7;54.8;;
65079;Laerm;52655;52.218;5.964;2023-07-29T17:02:53;39.8;33.0;49.6;;
65079;Laerm;52655;52.218;5.964;2023-07-29T17:05:54;39.6;33.1;57.1;;
65079;Laerm;52655;52.218;5.964;2023-07-29T17:08:56;41.0;33.8;59.8;;
65079;Laerm;52655;52.218;5.964;2023-07-29T17:11:57;48.3;33.7;62.3;;
65079;Laerm;52655;52.218;5.964;2023-07-29T17:14:58;41.0;34.1;55.8;;
65079;Laerm;52655;52.218;5.964;2023-07-29T17:17:59;51.2;35.4;66.5;;
65079;Laerm;52655;52.218;5.964;2023-07-29T17:24:01;42.1;34.6;54.8;;
65079;Laerm;52655;52.218;5.964;2023-07-29T17:27:02;42.8;35.3;55.5;;
65079;Laerm;52655;52.218;5.964;2023-07-29T17:30:03;41.3;34.3;52.3;;
65079;Laerm;52655;52.218;5.964;2023-07-29T17:33:04;39.0;32.4;49.1;;
65079;Laerm;52655;52.218;5.964;2023-07-29T17:36:05;41.4;32.6;52.5;;
65079;Laerm;52655;52.218;5.964;2023-07-29T17:39:06;54.6;32.7;75.9;;
65079;Laerm;52655;52.218;5.964;2023-07-29T17:42:07;43.4;35.1;56.8;;
65079;Laerm;52655;52.218;5.964;2023-07-29T17:45:08;41.6;34.0;52.3;;
65079;Laerm;52655;52.218;5.964;2023-07-29T17:48:09;37.6;31.6;52.3;;
65079;Laerm;52655;52.218;5.964;2023-07-29T17:51:10;43.0;37.2;55.4;;
65079;Laerm;52655;52.218;5.964;2023-07-29T17:54:11;42.8;36.7;52.2;;
65079;Laerm;52655;52.218;5.964;2023-07-29T17:57:12;39.1;33.1;50.2;;
65079;Laerm;52655;52.218;5.964;2023-07-29T18:00:13;43.1;33.6;57.8;;
65079;Laerm;52655;52.218;5.964;2023-07-29T18:03:14;47.4;32.8;58.6;;
65079;Laerm;52655;52.218;5.964;2023-07-29T18:06:16;45.4;34.1;54.6;;
65079;Laerm;52655;52.218;5.964;2023-07-29T18:09:17;42.4;33.7;54.8;;
65079;Laerm;52655;52.218;5.964;2023-07-29T18:18:20;39.5;32.1;51.4;;
65079;Laerm;52655;52.218;5.964;2023-07-29T18:23:16;40.4;33.7;53.3;;
65079;Laerm;52655;52.218;5.964;2023-07-29T18:29:18;39.3;33.3;51.4;;
65079;Laerm;52655;52.218;5.964;2023-07-29T18:35:20;42.1;32.5;53.9;;
65079;Laerm;52655;52.218;5.964;2023-07-29T18:41:22;42.3;37.8;54.8;;
65079;Laerm;52655;52.218;5.964;2023-07-29T18:47:25;44.6;33.6;64.4;;
65079;Laerm;52655;52.218;5.964;2023-07-29T18:53:27;45.1;37.0;56.8;;
65079;Laerm;52655;52.218;5.964;2023-07-29T18:59:29;41.2;33.7;54.8;;
65079;Laerm;52655;52.218;5.964;2023-07-29T19:05:31;43.3;33.6;57.4;;
65079;Laerm;52655;52.218;5.964;2023-07-29T19:11:33;40.6;34.9;51.0;;
65079;Laerm;52655;52.218;5.964;2023-07-29T19:16:29;41.4;32.4;50.3;;
65079;Laerm;52655;52.218;5.964;2023-07-29T19:19:30;40.9;33.4;56.4;;
65079;Laerm;52655;52.218;5.964;2023-07-29T19:22:31;41.3;33.8;52.3;;
65079;Laerm;52655;52.218;5.964;2023-07-29T19:25:32;43.4;35.6;53.7;;
65079;Laerm;52655;52.218;5.964;2023-07-29T19:28:34;40.7;32.2;60.0;;
65079;Laerm;52655;52.218;5.964;2023-07-29T19:31:35;40.1;33.9;51.3;;
65079;Laerm;52655;52.218;5.964;2023-07-29T19:34:36;45.2;32.9;59.5;;
65079;Laerm;52655;52.218;5.964;2023-07-29T19:37:37;43.3;37.7;57.9;;
65079;Laerm;52655;52.218;5.964;2023-07-29T19:40:38;44.5;32.7;57.1;;
65079;Laerm;52655;52.218;5.964;2023-07-29T19:43:39;44.0;33.6;54.8;;
65079;Laerm;52655;52.218;5.964;2023-07-29T19:46:40;41.4;32.6;54.1;;
65079;Laerm;52655;52.218;5.964;2023-07-29T19:49:41;41.9;33.3;54.4;;
65079;Laerm;52655;52.218;5.964;2023-07-29T19:52:42;43.8;32.4;52.2;;
65079;Laerm;52655;52.218;5.964;2023-07-29T19:58:44;41.3;35.6;52.3;;
65079;Laerm;52655;52.218;5.964;2023-07-29T20:01:45;43.8;34.7;52.5;;
65079;Laerm;52655;52.218;5.964;2023-07-29T20:04:50;42.3;35.4;52.3;;
65079;Laerm;52655;52.218;5.964;2023-07-29T20:07:47;44.5;35.2;53.6;;
65079;Laerm;52655;52.218;5.964;2023-07-29T20:10:48;41.5;35.1;53.8;;
65079;Laerm;52655;52.218;5.964;2023-07-29T20:13:49;38.9;33.8;47.7;;
65079;Laerm;52655;52.218;5.964;2023-07-29T20:16:50;40.8;34.7;50.9;;
65079;Laerm;52655;52.218;5.964;2023-07-29T20:19:51;40.1;33.0;50.3;;
65079;Laerm;52655;52.218;5.964;2023-07-29T20:22:52;41.4;32.8;51.4;;
65079;Laerm;52655;52.218;5.964;2023-07-29T20:25:53;40.6;34.0;52.3;;
65079;Laerm;52655;52.218;5.964;2023-07-29T20:28:54;42.3;33.0;52.1;;
65079;Laerm;52655;52.218;5.964;2023-07-29T20:31:56;47.6;34.0;69.9;;
65079;Laerm;52655;52.218;5.964;2023-07-29T20:34:57;42.7;36.0;53.2;;
65079;Laerm;52655;52.218;5.964;2023-07-29T20:37:58;41.0;33.0;53.9;;
65079;Laerm;52655;52.218;5.964;2023-07-29T20:40:59;42.7;33.6;54.4;;
65079;Laerm;52655;52.218;5.964;2023-07-29T20:44:00;40.7;34.2;50.3;;
65079;Laerm;52655;52.218;5.964;2023-07-29T20:47:01;40.8;33.8;51.1;;
65079;Laerm;52655;52.218;5.964;2023-07-29T20:51:57;42.7;34.2;65.7;;
65079;Laerm;52655;52.218;5.964;2023-07-29T20:54:58;44.5;34.9;68.9;;
65079;Laerm;52655;52.218;5.964;2023-07-29T20:58:00;42.3;34.3;54.4;;
65079;Laerm;52655;52.218;5.964;2023-07-29T21:01:00;42.1;34.2;50.5;;
65079;Laerm;52655;52.218;5.964;2023-07-29T21:04:01;42.2;35.1;55.1;;
65079;Laerm;52655;52.218;5.964;2023-07-29T21:07:02;42.6;34.7;56.2;;
65079;Laerm;52655;52.218;5.964;2023-07-29T21:10:04;42.3;34.1;50.9;;
65079;Laerm;52655;52.218;5.964;2023-07-29T21:13:05;41.4;34.4;57.0;;
65079;Laerm;52655;52.218;5.964;2023-07-29T21:16:06;40.0;33.9;49.1;;
65079;Laerm;52655;52.218;5.964;2023-07-29T21:19:07;39.4;33.1;60.5;;
65079;Laerm;52655;52.218;5.964;2023-07-29T21:22:08;42.8;33.9;57.3;;
65079;Laerm;52655;52.218;5.964;2023-07-29T21:25:09;44.7;34.6;61.3;;
65079;Laerm;52655;52.218;5.964;2023-07-29T21:28:10;42.1;34.5;52.5;;